sensor_id;sensor_type;location;lat;lon;timestamp;pressure;altitude;pressure_sealevel;temperature;humidity
36380;BME280;22411;53.016;18.632;2023-01-31T00:01:11;99497.94;;;2.97;100.00
36380;BME280;22411;53.016;18.632;2023-01-31T00:03:39;99500.25;;;3.02;100.00
36380;BME280;22411;53.016;18.632;2023-01-31T00:08:46;99509.72;;;3.00;100.00
36380;BME280;22411;53.016;18.632;2023-01-31T00:11:14;99514.59;;;3.04;100.00
36380;BME280;22411;53.016;18.632;2023-01-31T00:13:40;99530.56;;;3.09;100.00
36380;BME280;22411;53.016;18.632;2023-01-31T00:16:08;99528.66;;;3.13;100.00
36380;BME280;22411;53.016;18.632;2023-01-31T00:18:35;99539.06;;;3.10;100.00
36380;BME280;22411;53.016;18.632;2023-01-31T00:21:08;99528.09;;;3.08;100.00
36380;BME280;22411;53.016;18.632;2023-01-31T00:23:34;99529.97;;;3.04;100.00
36380;BME280;22411;53.016;18.632;2023-01-31T00:28:41;99543.13;;;3.14;100.00
36380;BME280;22411;53.016;18.632;2023-01-31T00:31:07;99560.06;;;3.17;100.00
36380;BME280;22411;53.016;18.632;2023-01-31T00:33:34;99554.38;;;3.11;100.00
36380;BME280;22411;53.016;18.632;2023-01-31T00:36:05;99547.56;;;3.10;100.00
36380;BME280;22411;53.016;18.632;2023-01-31T00:38:32;99552.88;;;3.07;100.00
36380;BME280;22411;53.016;18.632;2023-01-31T00:40:59;99556.47;;;3.03;100.00
36380;BME280;22411;53.016;18.632;2023-01-31T00:43:25;99560.63;;;3.06;100.00
36380;BME280;22411;53.016;18.632;2023-01-31T00:45:52;99561.28;;;3.09;100.00
36380;BME280;22411;53.016;18.632;2023-01-31T00:48:18;99568.31;;;3.06;100.00
36380;BME280;22411;53.016;18.632;2023-01-31T00:50:44;99577.69;;;3.05;100.00
36380;BME280;22411;53.016;18.632;2023-01-31T00:53:10;99576.50;;;3.12;100.00
36380;BME280;22411;53.016;18.632;2023-01-31T00:55:36;99579.19;;;3.09;100.00
36380;BME280;22411;53.016;18.632;2023-01-31T00:58:02;99577.66;;;3.07;100.00
36380;BME280;22411;53.016;18.632;2023-01-31T01:00:28;99587.06;;;3.06;100.00
36380;BME280;22411;53.016;18.632;2023-01-31T01:02:54;99578.63;;;3.04;100.00
36380;BME280;22411;53.016;18.632;2023-01-31T01:05:21;99586.06;;;3.09;100.00
36380;BME280;22411;53.016;18.632;2023-01-31T01:07:47;99589.53;;;3.08;100.00
36380;BME280;22411;53.016;18.632;2023-01-31T01:10:13;99595.00;;;3.18;100.00
36380;BME280;22411;53.016;18.632;2023-01-31T01:12:39;99599.38;;;3.15;100.00
36380;BME280;22411;53.016;18.632;2023-01-31T01:15:05;99606.91;;;3.19;100.00
36380;BME280;22411;53.016;18.632;2023-01-31T01:17:31;99601.03;;;3.17;100.00
36380;BME280;22411;53.016;18.632;2023-01-31T01:19:58;99613.84;;;3.17;100.00
36380;BME280;22411;53.016;18.632;2023-01-31T01:22:32;99608.53;;;3.20;100.00
36380;BME280;22411;53.016;18.632;2023-01-31T01:24:58;99607.97;;;3.14;100.00
36380;BME280;22411;53.016;18.632;2023-01-31T01:27:24;99621.53;;;3.17;100.00
36380;BME280;22411;53.016;18.632;2023-01-31T01:29:52;99630.09;;;3.15;100.00
36380;BME280;22411;53.016;18.632;2023-01-31T01:32:18;99624.59;;;3.23;100.00
36380;BME280;22411;53.016;18.632;2023-01-31T01:34:44;99628.28;;;3.18;100.00
36380;BME280;22411;53.016;18.632;2023-01-31T01:37:10;99643.44;;;3.22;100.00
36380;BME280;22411;53.016;18.632;2023-01-31T01:39:46;99633.47;;;3.16;100.00
36380;BME280;22411;53.016;18.632;2023-01-31T01:42:22;99636.56;;;3.23;100.00
36380;BME280;22411;53.016;18.632;2023-01-31T01:44:54;99640.19;;;3.19;100.00
36380;BME280;22411;53.016;18.632;2023-01-31T01:52:40;99663.19;;;3.03;100.00
36380;BME280;22411;53.016;18.632;2023-01-31T01:55:50;99660.84;;;2.98;100.00
36380;BME280;22411;53.016;18.632;2023-01-31T01:58:21;99666.19;;;2.94;100.00
36380;BME280;22411;53.016;18.632;2023-01-31T02:00:49;99672.53;;;2.86;100.00
36380;BME280;22411;53.016;18.632;2023-01-31T02:03:15;99665.81;;;2.84;100.00
36380;BME280;22411;53.016;18.632;2023-01-31T02:08:17;99667.84;;;2.95;100.00
36380;BME280;22411;53.016;18.632;2023-01-31T02:10:55;99684.34;;;2.89;100.00
36380;BME280;22411;53.016;18.632;2023-01-31T02:13:23;99677.56;;;2.88;100.00
36380;BME280;22411;53.016;18.632;2023-01-31T02:15:49;99698.22;;;2.85;100.00
36380;BME280;22411;53.016;18.632;2023-01-31T02:18:16;99692.94;;;2.88;100.00
36380;BME280;22411;53.016;18.632;2023-01-31T02:21:03;99697.38;;;2.84;100.00
36380;BME280;22411;53.016;18.632;2023-01-31T02:23:55;99702.56;;;2.83;100.00
36380;BME280;22411;53.016;18.632;2023-01-31T02:32:37;99717.72;;;2.70;100.00
36380;BME280;22411;53.016;18.632;2023-01-31T02:40:45;99724.81;;;2.63;100.00
36380;BME280;22411;53.016;18.632;2023-01-31T02:46:29;99740.25;;;2.62;100.00
36380;BME280;22411;53.016;18.632;2023-01-31T02:49:09;99738.69;;;2.59;100.00
36380;BME280;22411;53.016;18.632;2023-01-31T02:51:44;99737.69;;;2.62;100.00
36380;BME280;22411;53.016;18.632;2023-01-31T02:54:32;99753.84;;;2.64;100.00
36380;BME280;22411;53.016;18.632;2023-01-31T02:57:19;99740.13;;;2.65;100.00
36380;BME280;22411;53.016;18.632;2023-01-31T02:59:47;99750.28;;;2.67;100.00
36380;BME280;22411;53.016;18.632;2023-01-31T03:02:12;99756.16;;;2.69;100.00
36380;BME280;22411;53.016;18.632;2023-01-31T03:04:39;99756.00;;;2.72;100.00
36380;BME280;22411;53.016;18.632;2023-01-31T03:18:05;99769.63;;;2.72;100.00
36380;BME280;22411;53.016;18.632;2023-01-31T03:23:12;99789.28;;;2.72;100.00
36380;BME280;22411;53.016;18.632;2023-01-31T03:25:40;99794.31;;;2.73;100.00
36380;BME280;22411;53.016;18.632;2023-01-31T03:28:10;99793.44;;;2.74;100.00
36380;BME280;22411;53.016;18.632;2023-01-31T03:30:42;99803.72;;;2.73;100.00
36380;BME280;22411;53.016;18.632;2023-01-31T03:33:20;99810.44;;;2.75;100.00
36380;BME280;22411;53.016;18.632;2023-01-31T03:35:53;99818.94;;;2.76;100.00
36380;BME280;22411;53.016;18.632;2023-01-31T03:38:29;99823.03;;;2.80;100.00
36380;BME280;22411;53.016;18.632;2023-01-31T03:41:02;99822.88;;;2.83;100.00
36380;BME280;22411;53.016;18.632;2023-01-31T03:43:51;99828.88;;;2.82;100.00
36380;BME280;22411;53.016;18.632;2023-01-31T03:46:28;99833.25;;;2.80;100.00
36380;BME280;22411;53.016;18.632;2023-01-31T03:48:58;99833.47;;;2.75;100.00
36380;BME280;22411;53.016;18.632;2023-01-31T03:51:30;99841.91;;;2.77;100.00
36380;BME280;22411;53.016;18.632;2023-01-31T03:54:01;99846.88;;;2.80;100.00
36380;BME280;22411;53.016;18.632;2023-01-31T03:56:36;99856.84;;;2.86;100.00
36380;BME280;22411;53.016;18.632;2023-01-31T03:59:08;99861.94;;;2.86;100.00
36380;BME280;22411;53.016;18.632;2023-01-31T04:01:40;99854.88;;;2.92;100.00
36380;BME280;22411;53.016;18.632;2023-01-31T04:04:11;99858.50;;;2.87;100.00
36380;BME280;22411;53.016;18.632;2023-01-31T04:06:39;99871.41;;;2.84;100.00
36380;BME280;22411;53.016;18.632;2023-01-31T04:09:05;99869.47;;;2.89;100.00
36380;BME280;22411;53.016;18.632;2023-01-31T04:11:37;99881.41;;;2.91;100.00
36380;BME280;22411;53.016;18.632;2023-01-31T04:14:04;99871.22;;;2.89;100.00
36380;BME280;22411;53.016;18.632;2023-01-31T04:16:30;99874.66;;;2.88;100.00
36380;BME280;22411;53.016;18.632;2023-01-31T04:18:55;99867.69;;;2.92;100.00
36380;BME280;22411;53.016;18.632;2023-01-31T04:21:22;99873.63;;;2.92;100.00
36380;BME280;22411;53.016;18.632;2023-01-31T04:23:48;99882.97;;;2.93;100.00
36380;BME280;22411;53.016;18.632;2023-01-31T04:26:14;99887.38;;;2.89;100.00
36380;BME280;22411;53.016;18.632;2023-01-31T04:28:40;99884.22;;;2.84;100.00
36380;BME280;22411;53.016;18.632;2023-01-31T04:31:06;99900.28;;;2.88;100.00
36380;BME280;22411;53.016;18.632;2023-01-31T04:33:33;99901.19;;;2.87;100.00
36380;BME280;22411;53.016;18.632;2023-01-31T04:35:59;99896.06;;;2.87;100.00
36380;BME280;22411;53.016;18.632;2023-01-31T04:38:25;99898.41;;;2.92;100.00
36380;BME280;22411;53.016;18.632;2023-01-31T04:40:51;99906.84;;;2.94;100.00
36380;BME280;22411;53.016;18.632;2023-01-31T04:43:17;99914.88;;;2.86;100.00
36380;BME280;22411;53.016;18.632;2023-01-31T04:45:43;99920.00;;;2.86;100.00
36380;BME280;22411;53.016;18.632;2023-01-31T04:48:09;99919.19;;;2.85;100.00
36380;BME280;22411;53.016;18.632;2023-01-31T04:50:35;99923.47;;;2.85;100.00
36380;BME280;22411;53.016;18.632;2023-01-31T04:53:01;99920.28;;;2.80;100.00
36380;BME280;22411;53.016;18.632;2023-01-31T04:55:27;99921.53;;;2.71;100.00
36380;BME280;22411;53.016;18.632;2023-01-31T04:57:53;99937.16;;;2.65;100.00
36380;BME280;22411;53.016;18.632;2023-01-31T05:00:19;99937.19;;;2.63;100.00
36380;BME280;22411;53.016;18.632;2023-01-31T05:02:45;99944.84;;;2.65;100.00
36380;BME280;22411;53.016;18.632;2023-01-31T05:05:12;99933.81;;;2.63;100.00
36380;BME280;22411;53.016;18.632;2023-01-31T05:07:38;99943.38;;;2.59;100.00
36380;BME280;22411;53.016;18.632;2023-01-31T05:10:07;99943.78;;;2.50;100.00
36380;BME280;22411;53.016;18.632;2023-01-31T05:12:34;99953.88;;;2.53;100.00
36380;BME280;22411;53.016;18.632;2023-01-31T05:15:00;99958.16;;;2.53;100.00
36380;BME280;22411;53.016;18.632;2023-01-31T05:17:26;99964.03;;;2.55;100.00
36380;BME280;22411;53.016;18.632;2023-01-31T05:19:55;99963.22;;;2.54;100.00
36380;BME280;22411;53.016;18.632;2023-01-31T05:22:21;99959.03;;;2.52;100.00
36380;BME280;22411;53.016;18.632;2023-01-31T05:24:48;99965.91;;;2.51;100.00
36380;BME280;22411;53.016;18.632;2023-01-31T05:27:15;99975.41;;;2.48;100.00
36380;BME280;22411;53.016;18.632;2023-01-31T05:29:42;99987.59;;;2.43;100.00
36380;BME280;22411;53.016;18.632;2023-01-31T05:32:08;99989.31;;;2.42;100.00
36380;BME280;22411;53.016;18.632;2023-01-31T05:34:34;99989.75;;;2.31;100.00
36380;BME280;22411;53.016;18.632;2023-01-31T05:37:01;99998.59;;;2.24;100.00
36380;BME280;22411;53.016;18.632;2023-01-31T05:39:27;99996.38;;;2.17;100.00
36380;BME280;22411;53.016;18.632;2023-01-31T05:41:55;100008.31;;;2.16;100.00
36380;BME280;22411;53.016;18.632;2023-01-31T05:44:26;100007.75;;;2.09;100.00
36380;BME280;22411;53.016;18.632;2023-01-31T05:46:52;100008.56;;;2.10;100.00
36380;BME280;22411;53.016;18.632;2023-01-31T05:49:19;100004.50;;;2.06;100.00
36380;BME280;22411;53.016;18.632;2023-01-31T05:51:45;99999.38;;;2.06;100.00
36380;BME280;22411;53.016;18.632;2023-01-31T05:54:11;100001.16;;;2.04;100.00
36380;BME280;22411;53.016;18.632;2023-01-31T05:56:37;100011.63;;;1.98;100.00
36380;BME280;22411;53.016;18.632;2023-01-31T05:59:04;100021.22;;;1.93;100.00
36380;BME280;22411;53.016;18.632;2023-01-31T06:01:30;100011.81;;;1.93;100.00
36380;BME280;22411;53.016;18.632;2023-01-31T06:03:56;100016.00;;;1.96;100.00
36380;BME280;22411;53.016;18.632;2023-01-31T06:06:22;100014.38;;;1.93;100.00
36380;BME280;22411;53.016;18.632;2023-01-31T06:08:48;100015.28;;;1.92;100.00
36380;BME280;22411;53.016;18.632;2023-01-31T06:11:14;100012.19;;;1.84;100.00
36380;BME280;22411;53.016;18.632;2023-01-31T06:13:41;100015.63;;;1.83;100.00
36380;BME280;22411;53.016;18.632;2023-01-31T06:16:11;100020.50;;;1.89;100.00
36380;BME280;22411;53.016;18.632;2023-01-31T06:18:39;100014.69;;;1.86;100.00
36380;BME280;22411;53.016;18.632;2023-01-31T06:21:07;100027.41;;;1.87;100.00
36380;BME280;22411;53.016;18.632;2023-01-31T06:23:34;100021.72;;;1.80;100.00
36380;BME280;22411;53.016;18.632;2023-01-31T06:26:00;100024.09;;;1.85;100.00
36380;BME280;22411;53.016;18.632;2023-01-31T06:28:26;100037.81;;;1.82;100.00
36380;BME280;22411;53.016;18.632;2023-01-31T06:30:52;100039.53;;;1.82;100.00
36380;BME280;22411;53.016;18.632;2023-01-31T06:33:20;100051.16;;;1.89;100.00
36380;BME280;22411;53.016;18.632;2023-01-31T06:35:48;100061.38;;;1.89;100.00
36380;BME280;22411;53.016;18.632;2023-01-31T06:38:17;100066.22;;;1.97;100.00
36380;BME280;22411;53.016;18.632;2023-01-31T06:40:44;100074.00;;;1.94;100.00
36380;BME280;22411;53.016;18.632;2023-01-31T06:43:10;100068.78;;;1.97;100.00
36380;BME280;22411;53.016;18.632;2023-01-31T06:45:36;100079.66;;;2.02;100.00
36380;BME280;22411;53.016;18.632;2023-01-31T06:48:02;100080.72;;;1.96;100.00
36380;BME280;22411;53.016;18.632;2023-01-31T06:50:29;100108.69;;;1.99;100.00
36380;BME280;22411;53.016;18.632;2023-01-31T06:52:58;100106.22;;;1.98;100.00
36380;BME280;22411;53.016;18.632;2023-01-31T06:55:24;100100.19;;;1.99;100.00
36380;BME280;22411;53.016;18.632;2023-01-31T06:57:50;100115.44;;;2.02;100.00
36380;BME280;22411;53.016;18.632;2023-01-31T07:00:16;100114.47;;;2.04;100.00
36380;BME280;22411;53.016;18.632;2023-01-31T07:02:46;100114.53;;;2.03;100.00
36380;BME280;22411;53.016;18.632;2023-01-31T07:05:13;100119.72;;;2.01;100.00
36380;BME280;22411;53.016;18.632;2023-01-31T07:07:40;100123.03;;;2.03;100.00
36380;BME280;22411;53.016;18.632;2023-01-31T07:10:06;100124.75;;;2.03;100.00
36380;BME280;22411;53.016;18.632;2023-01-31T07:12:34;100127.50;;;1.98;100.00
36380;BME280;22411;53.016;18.632;2023-01-31T07:15:02;100120.59;;;2.00;100.00
36380;BME280;22411;53.016;18.632;2023-01-31T07:17:28;100121.63;;;1.96;100.00
36380;BME280;22411;53.016;18.632;2023-01-31T07:19:54;100132.38;;;2.04;100.00
36380;BME280;22411;53.016;18.632;2023-01-31T07:22:20;100128.03;;;2.06;100.00
36380;BME280;22411;53.016;18.632;2023-01-31T07:24:46;100128.97;;;2.04;100.00
36380;BME280;22411;53.016;18.632;2023-01-31T07:27:14;100120.31;;;2.08;100.00
36380;BME280;22411;53.016;18.632;2023-01-31T07:29:40;100143.13;;;2.13;100.00
36380;BME280;22411;53.016;18.632;2023-01-31T07:32:07;100136.41;;;2.10;100.00
36380;BME280;22411;53.016;18.632;2023-01-31T07:34:32;100152.34;;;2.17;100.00
36380;BME280;22411;53.016;18.632;2023-01-31T07:36:59;100154.78;;;2.20;100.00
36380;BME280;22411;53.016;18.632;2023-01-31T07:39:26;100158.78;;;2.27;100.00
36380;BME280;22411;53.016;18.632;2023-01-31T07:41:52;100145.56;;;2.38;100.00
36380;BME280;22411;53.016;18.632;2023-01-31T07:44:18;100150.47;;;2.42;100.00
36380;BME280;22411;53.016;18.632;2023-01-31T07:46:44;100157.91;;;2.48;100.00
36380;BME280;22411;53.016;18.632;2023-01-31T07:49:10;100172.19;;;2.54;100.00
36380;BME280;22411;53.016;18.632;2023-01-31T07:51:37;100202.81;;;2.55;100.00
36380;BME280;22411;53.016;18.632;2023-01-31T07:54:05;100168.72;;;2.55;100.00
36380;BME280;22411;53.016;18.632;2023-01-31T07:56:31;100182.34;;;2.55;100.00
36380;BME280;22411;53.016;18.632;2023-01-31T07:58:57;100185.75;;;2.56;100.00
36380;BME280;22411;53.016;18.632;2023-01-31T08:01:26;100181.59;;;2.53;100.00
36380;BME280;22411;53.016;18.632;2023-01-31T08:04:13;100172.22;;;2.52;100.00
36380;BME280;22411;53.016;18.632;2023-01-31T08:06:41;100183.09;;;2.57;100.00
36380;BME280;22411;53.016;18.632;2023-01-31T08:09:07;100187.47;;;2.55;100.00
36380;BME280;22411;53.016;18.632;2023-01-31T08:11:34;100191.38;;;2.64;100.00
36380;BME280;22411;53.016;18.632;2023-01-31T08:14:00;100198.81;;;2.70;100.00
36380;BME280;22411;53.016;18.632;2023-01-31T08:16:26;100214.41;;;2.64;100.00
36380;BME280;22411;53.016;18.632;2023-01-31T08:18:53;100205.88;;;2.63;100.00
36380;BME280;22411;53.016;18.632;2023-01-31T08:21:19;100207.63;;;2.63;100.00
36380;BME280;22411;53.016;18.632;2023-01-31T08:23:45;100209.16;;;2.67;100.00
36380;BME280;22411;53.016;18.632;2023-01-31T08:26:17;100206.41;;;2.72;100.00
36380;BME280;22411;53.016;18.632;2023-01-31T08:28:43;100205.53;;;2.73;100.00
36380;BME280;22411;53.016;18.632;2023-01-31T08:31:15;100209.56;;;2.78;100.00
36380;BME280;22411;53.016;18.632;2023-01-31T08:33:41;100205.69;;;2.68;100.00
36380;BME280;22411;53.016;18.632;2023-01-31T08:36:13;100218.50;;;2.68;100.00
36380;BME280;22411;53.016;18.632;2023-01-31T08:38:40;100217.47;;;2.72;100.00
36380;BME280;22411;53.016;18.632;2023-01-31T08:41:07;100269.41;;;2.76;100.00
36380;BME280;22411;53.016;18.632;2023-01-31T08:43:33;100237.72;;;2.78;100.00
36380;BME280;22411;53.016;18.632;2023-01-31T08:45:59;100240.47;;;2.94;100.00
36380;BME280;22411;53.016;18.632;2023-01-31T08:48:25;100228.03;;;3.07;100.00
36380;BME280;22411;53.016;18.632;2023-01-31T08:50:51;100227.75;;;3.13;100.00
36380;BME280;22411;53.016;18.632;2023-01-31T08:53:17;100244.78;;;3.14;100.00
36380;BME280;22411;53.016;18.632;2023-01-31T08:55:43;100240.50;;;3.14;100.00
36380;BME280;22411;53.016;18.632;2023-01-31T08:58:09;100234.78;;;3.08;100.00
36380;BME280;22411;53.016;18.632;2023-01-31T09:00:35;100242.78;;;3.21;100.00
36380;BME280;22411;53.016;18.632;2023-01-31T09:03:01;100252.56;;;3.31;100.00
36380;BME280;22411;53.016;18.632;2023-01-31T09:05:28;100253.28;;;3.35;100.00
36380;BME280;22411;53.016;18.632;2023-01-31T09:07:55;100256.50;;;3.40;100.00
36380;BME280;22411;53.016;18.632;2023-01-31T09:10:22;100259.88;;;3.61;100.00
36380;BME280;22411;53.016;18.632;2023-01-31T09:12:49;100254.50;;;3.86;100.00
36380;BME280;22411;53.016;18.632;2023-01-31T09:15:15;100259.25;;;4.31;100.00
36380;BME280;22411;53.016;18.632;2023-01-31T09:17:43;100263.47;;;4.51;100.00
36380;BME280;22411;53.016;18.632;2023-01-31T09:20:14;100269.72;;;4.82;100.00
36380;BME280;22411;53.016;18.632;2023-01-31T09:22:40;100275.25;;;4.91;100.00
36380;BME280;22411;53.016;18.632;2023-01-31T09:25:07;100283.47;;;5.33;100.00
36380;BME280;22411;53.016;18.632;2023-01-31T09:27:34;100281.72;;;4.81;100.00
36380;BME280;22411;53.016;18.632;2023-01-31T09:30:01;100286.63;;;5.20;100.00
36380;BME280;22411;53.016;18.632;2023-01-31T09:32:27;100292.06;;;5.32;100.00
36380;BME280;22411;53.016;18.632;2023-01-31T09:34:57;100295.56;;;4.96;100.00
36380;BME280;22411;53.016;18.632;2023-01-31T09:37:24;100289.03;;;4.89;100.00
36380;BME280;22411;53.016;18.632;2023-01-31T09:39:55;100296.09;;;4.85;100.00
36380;BME280;22411;53.016;18.632;2023-01-31T09:42:33;100279.63;;;4.53;100.00
36380;BME280;22411;53.016;18.632;2023-01-31T09:47:57;100284.00;;;4.32;100.00
36380;BME280;22411;53.016;18.632;2023-01-31T09:50:34;100274.66;;;4.31;100.00
36380;BME280;22411;53.016;18.632;2023-01-31T09:53:01;100278.03;;;4.51;100.00
36380;BME280;22411;53.016;18.632;2023-01-31T09:55:34;100264.78;;;4.41;100.00
36380;BME280;22411;53.016;18.632;2023-01-31T09:58:14;100273.88;;;4.48;100.00
36380;BME280;22411;53.016;18.632;2023-01-31T10:00:56;100277.50;;;4.44;100.00
36380;BME280;22411;53.016;18.632;2023-01-31T10:03:40;100252.34;;;4.33;100.00
36380;BME280;22411;53.016;18.632;2023-01-31T10:06:24;100274.38;;;4.18;100.00
36380;BME280;22411;53.016;18.632;2023-01-31T10:09:31;100273.63;;;4.35;100.00
36380;BME280;22411;53.016;18.632;2023-01-31T10:14:46;100277.94;;;4.52;100.00
36380;BME280;22411;53.016;18.632;2023-01-31T10:17:28;100284.72;;;4.17;100.00
36380;BME280;22411;53.016;18.632;2023-01-31T10:28:45;100282.97;;;3.99;100.00
36380;BME280;22411;53.016;18.632;2023-01-31T10:37:09;100286.09;;;3.86;100.00
36380;BME280;22411;53.016;18.632;2023-01-31T10:40:08;100284.03;;;4.13;100.00
36380;BME280;22411;53.016;18.632;2023-01-31T10:42:39;100274.38;;;4.18;100.00
36380;BME280;22411;53.016;18.632;2023-01-31T10:53:22;100271.88;;;4.55;100.00
36380;BME280;22411;53.016;18.632;2023-01-31T10:59:00;100251.38;;;4.17;100.00
36380;BME280;22411;53.016;18.632;2023-01-31T11:01:32;100263.09;;;4.23;100.00
36380;BME280;22411;53.016;18.632;2023-01-31T11:04:00;100260.66;;;4.19;100.00
36380;BME280;22411;53.016;18.632;2023-01-31T11:06:26;100261.06;;;4.10;100.00
36380;BME280;22411;53.016;18.632;2023-01-31T11:08:58;100269.19;;;3.82;100.00
36380;BME280;22411;53.016;18.632;2023-01-31T11:11:26;100262.03;;;3.70;100.00
36380;BME280;22411;53.016;18.632;2023-01-31T11:14:00;100259.47;;;3.70;100.00
36380;BME280;22411;53.016;18.632;2023-01-31T11:16:29;100260.09;;;3.75;100.00
36380;BME280;22411;53.016;18.632;2023-01-31T11:19:00;100251.34;;;3.79;100.00
36380;BME280;22411;53.016;18.632;2023-01-31T11:21:33;100250.03;;;3.89;100.00
36380;BME280;22411;53.016;18.632;2023-01-31T11:24:20;100249.78;;;3.96;100.00
36380;BME280;22411;53.016;18.632;2023-01-31T11:27:09;100257.22;;;4.02;100.00
36380;BME280;22411;53.016;18.632;2023-01-31T11:29:39;100243.19;;;4.28;100.00
36380;BME280;22411;53.016;18.632;2023-01-31T11:32:29;100252.06;;;4.20;100.00
36380;BME280;22411;53.016;18.632;2023-01-31T11:35:20;100239.50;;;4.14;100.00
36380;BME280;22411;53.016;18.632;2023-01-31T11:38:34;100252.63;;;4.08;100.00
36380;BME280;22411;53.016;18.632;2023-01-31T11:40:41;100251.31;;;3.81;100.00
36380;BME280;22411;53.016;18.632;2023-01-31T11:45:56;100245.75;;;3.71;100.00
36380;BME280;22411;53.016;18.632;2023-01-31T11:48:25;100247.13;;;3.59;100.00
36380;BME280;22411;53.016;18.632;2023-01-31T11:50:55;100240.66;;;3.51;100.00
36380;BME280;22411;53.016;18.632;2023-01-31T11:53:27;100232.97;;;3.51;100.00
36380;BME280;22411;53.016;18.632;2023-01-31T11:56:10;100222.63;;;3.52;100.00
36380;BME280;22411;53.016;18.632;2023-01-31T11:58:40;100226.09;;;3.51;100.00
36380;BME280;22411;53.016;18.632;2023-01-31T12:03:46;100221.69;;;3.55;100.00
36380;BME280;22411;53.016;18.632;2023-01-31T12:06:53;100226.47;;;3.62;100.00
36380;BME280;22411;53.016;18.632;2023-01-31T12:09:20;100222.38;;;3.58;100.00
36380;BME280;22411;53.016;18.632;2023-01-31T12:11:53;100235.25;;;3.57;100.00
36380;BME280;22411;53.016;18.632;2023-01-31T12:14:34;100257.75;;;3.50;100.00
36380;BME280;22411;53.016;18.632;2023-01-31T12:17:04;100235.88;;;3.43;100.00
36380;BME280;22411;53.016;18.632;2023-01-31T12:19:51;100211.53;;;3.33;100.00
36380;BME280;22411;53.016;18.632;2023-01-31T12:22:37;100191.88;;;3.33;100.00
36380;BME280;22411;53.016;18.632;2023-01-31T12:31:10;100192.31;;;3.43;100.00
36380;BME280;22411;53.016;18.632;2023-01-31T12:39:27;100166.81;;;3.40;100.00
36380;BME280;22411;53.016;18.632;2023-01-31T12:42:28;100168.28;;;3.46;100.00
36380;BME280;22411;53.016;18.632;2023-01-31T12:45:20;100159.84;;;3.44;100.00
36380;BME280;22411;53.016;18.632;2023-01-31T12:54:02;100154.56;;;3.47;100.00
36380;BME280;22411;53.016;18.632;2023-01-31T13:07:56;100138.16;;;3.51;100.00
36380;BME280;22411;53.016;18.632;2023-01-31T13:10:14;100134.84;;;3.49;100.00
36380;BME280;22411;53.016;18.632;2023-01-31T13:12:45;100139.19;;;3.47;100.00
36380;BME280;22411;53.016;18.632;2023-01-31T13:18:05;100127.16;;;3.49;100.00
36380;BME280;22411;53.016;18.632;2023-01-31T13:20:37;100129.00;;;3.45;100.00
36380;BME280;22411;53.016;18.632;2023-01-31T13:23:37;100125.34;;;3.51;100.00
36380;BME280;22411;53.016;18.632;2023-01-31T13:26:21;100118.28;;;3.56;100.00
36380;BME280;22411;53.016;18.632;2023-01-31T13:29:00;100117.09;;;3.63;100.00
36380;BME280;22411;53.016;18.632;2023-01-31T13:31:39;100127.13;;;3.67;100.00
36380;BME280;22411;53.016;18.632;2023-01-31T13:34:25;100114.84;;;3.74;100.00
36380;BME280;22411;53.016;18.632;2023-01-31T13:36:58;100107.13;;;3.76;100.00
36380;BME280;22411;53.016;18.632;2023-01-31T13:39:31;100101.09;;;3.77;100.00
36380;BME280;22411;53.016;18.632;2023-01-31T13:41:59;100113.16;;;3.75;100.00
36380;BME280;22411;53.016;18.632;2023-01-31T13:44:29;100102.63;;;3.62;100.00
36380;BME280;22411;53.016;18.632;2023-01-31T13:47:01;100090.28;;;3.51;100.00
36380;BME280;22411;53.016;18.632;2023-01-31T13:49:33;100095.28;;;3.54;100.00
36380;BME280;22411;53.016;18.632;2023-01-31T13:52:15;100095.97;;;3.58;100.00
36380;BME280;22411;53.016;18.632;2023-01-31T13:54:48;100089.34;;;3.54;100.00
36380;BME280;22411;53.016;18.632;2023-01-31T13:59:55;100091.63;;;3.41;100.00
36380;BME280;22411;53.016;18.632;2023-01-31T14:02:26;100095.28;;;3.35;100.00
36380;BME280;22411;53.016;18.632;2023-01-31T14:11:00;100082.69;;;3.31;100.00
36380;BME280;22411;53.016;18.632;2023-01-31T14:16:00;100074.09;;;3.32;100.00
36380;BME280;22411;53.016;18.632;2023-01-31T14:18:41;100072.44;;;3.31;100.00
36380;BME280;22411;53.016;18.632;2023-01-31T14:24:02;100073.63;;;3.24;100.00
36380;BME280;22411;53.016;18.632;2023-01-31T14:29:40;100079.50;;;3.07;100.00
36380;BME280;22411;53.016;18.632;2023-01-31T14:32:15;100053.47;;;2.97;100.00
36380;BME280;22411;53.016;18.632;2023-01-31T14:34:47;100052.75;;;2.94;100.00
36380;BME280;22411;53.016;18.632;2023-01-31T14:37:38;100059.69;;;2.92;100.00
36380;BME280;22411;53.016;18.632;2023-01-31T14:40:24;100067.38;;;2.92;100.00
36380;BME280;22411;53.016;18.632;2023-01-31T14:43:19;100037.56;;;2.91;100.00
36380;BME280;22411;53.016;18.632;2023-01-31T14:52:21;100037.03;;;2.82;100.00
36380;BME280;22411;53.016;18.632;2023-01-31T14:57:22;100044.91;;;2.78;100.00
36380;BME280;22411;53.016;18.632;2023-01-31T15:05:00;100029.63;;;2.76;100.00
36380;BME280;22411;53.016;18.632;2023-01-31T15:07:27;100024.44;;;2.78;100.00
36380;BME280;22411;53.016;18.632;2023-01-31T15:09:53;100024.63;;;2.73;100.00
36380;BME280;22411;53.016;18.632;2023-01-31T15:12:56;100028.25;;;2.69;100.00
36380;BME280;22411;53.016;18.632;2023-01-31T15:15:32;100023.13;;;2.69;100.00
36380;BME280;22411;53.016;18.632;2023-01-31T15:18:02;100016.28;;;2.70;100.00
36380;BME280;22411;53.016;18.632;2023-01-31T15:20:50;100016.28;;;2.70;100.00
36380;BME280;22411;53.016;18.632;2023-01-31T15:23:31;100002.91;;;2.63;100.00